Airfield :







YOU CAN JOIN US ON...

 
LOGIN :

Register | Disclaimer

   EN    FR    IT 

 









Legend :    VFR   Marginal VFR   IFR   Intensive IFR   Very Intensive IFR
Visi :
Ceiling :
>= 8 km
>= 3000ft
5 to 8 km
1000 to 3000 ft
1500m to 5 km
500 to 1000 ft
800 to 1500m
200 to 500 ft
< 800m
< 200 ft
Symbols :   Thunderstorms  Fog  Heavy snow  Heavy precipitations  Wind > 20 kt






- Airport Elevation : 21 ft
- IATA code : YVM


CYVM - Qikiqtarjuac

CURRENT METAR :
  • 272200Z AUTO 00000KT 9SM CLR M30/M34 A2981 RMK SLP097

EXPIRED METARs :
  • 272100Z VRB02KT 15SM SKC M31/M34 A2980 RMK S00 ATF 13UTC/24/SNW CVR/ SLP095
  • 272000Z 00000KT 15SM FEW180 M32/M35 A2980 RMK AC1 AC TR SLP094

TAF TAF CYVM
Valid from the 27 at 19:00 until the 28 at 07:00 UTC


271838Z 2719/2807 VRB03KT P6SM FEW150
FM272300 VRB03KT P6SM SCT020 RMK NXT FCST BY 280100Z



MET'MAP, your aeronautical weather chart ! - Copyright ORBIFLY December 2007 - Disclaimer

ORBIFLY MET'MAP TEAM :

Programming & Development : Alexandra Zaïnal
Concept & original design : Baudouin d'Aumeries
Assistance for programming : Marc-Olivier Méhu
Technical & hardware support : Manuel Goepfert

Contact : metmap@orbifly.com




SOURCES & CREDITS :

   NOAA